Time;durP1;ratioP1;P1;durP2;ratioP2;P2;SDS_P1;SDS_P2;PMS_P1;PMS_P2;Temp;Humidity;BMP_temperature;BMP_pressure;BME280_temperature;BME280_humidity;BME280_pressure;Samples;Min_cycle;Max_cycle;Signal;HPM_P1;HPM_P2
2023/05/18 00:02:02;;;;;;;14.27;9.43;;;2.40;99.90;;;;;;5015335;28;20056;-79
2023/05/18 00:04:33;;;;;;;8.75;3.47;;;2.40;99.90;;;;;;4999224;28;20037;-79
2023/05/18 00:07:02;;;;;;;12.98;9.20;;;2.40;99.90;;;;;;5015660;28;20097;-79
2023/05/18 00:09:30;;;;;;;14.65;9.63;;;2.40;99.90;;;;;;5000335;28;20033;-79
2023/05/18 00:11:56;;;;;;;12.60;8.93;;;2.40;99.90;;;;;;5015170;28;20050;-79
2023/05/18 00:14:22;;;;;;;16.20;10.50;;;2.40;99.90;;;;;;4994625;28;20111;-79
2023/05/18 00:16:52;;;;;;;6.88;2.97;;;2.40;99.90;;;;;;4995722;28;20042;-79
2023/05/18 00:19:19;;;;;;;17.17;11.85;;;2.30;99.90;;;;;;4990930;28;20384;-79
2023/05/18 00:21:46;;;;;;;15.40;11.23;;;2.30;99.90;;;;;;5016197;28;20118;-79
2023/05/18 00:24:13;;;;;;;13.80;10.57;;;2.30;99.90;;;;;;4995818;28;20489;-79
2023/05/18 00:26:40;;;;;;;15.00;9.88;;;2.30;99.90;;;;;;4980339;28;20038;-79
2023/05/18 00:29:06;;;;;;;17.35;11.02;;;2.30;99.90;;;;;;4997096;28;20143;-79
2023/05/18 00:31:35;;;;;;;8.82;4.28;;;2.30;99.90;;;;;;4997890;28;20141;-79
2023/05/18 00:34:05;;;;;;;14.98;11.15;;;2.20;99.90;;;;;;4999047;28;20049;-79
2023/05/18 00:36:31;;;;;;;14.18;10.85;;;2.20;99.90;;;;;;4986404;28;20053;-79
2023/05/18 00:38:57;;;;;;;14.48;10.65;;;2.20;99.90;;;;;;4980796;28;20073;-79
2023/05/18 00:41:25;;;;;;;16.95;11.57;;;2.20;99.90;;;;;;4995442;28;20048;-79
2023/05/18 00:43:53;;;;;;;14.07;10.25;;;2.20;99.90;;;;;;4997777;28;20039;-79
2023/05/18 00:46:20;;;;;;;16.02;12.65;;;2.20;99.90;;;;;;4995014;28;20039;-79
2023/05/18 00:48:48;;;;;;;15.10;11.20;;;2.10;99.90;;;;;;4996522;28;20042;-79
2023/05/18 00:51:14;;;;;;;9.45;3.75;;;2.10;99.90;;;;;;4999994;28;20042;-79
2023/05/18 00:53:41;;;;;;;13.00;4.13;;;2.10;99.90;;;;;;4998932;28;20113;-79
2023/05/18 00:56:08;;;;;;;16.60;11.73;;;2.00;99.90;;;;;;4999510;28;20068;-79
2023/05/18 00:58:34;;;;;;;17.10;11.95;;;2.00;99.90;;;;;;4999675;28;20056;-79
2023/05/18 01:01:01;;;;;;;17.17;13.63;;;2.00;99.90;;;;;;5006607;28;20042;-79
2023/05/18 01:03:29;;;;;;;14.93;11.25;;;2.00;99.90;;;;;;5020369;28;20041;-79
2023/05/18 01:05:56;;;;;;;15.50;12.13;;;2.00;99.90;;;;;;5023013;28;20038;-79
2023/05/18 01:08:26;;;;;;;6.60;3.55;;;2.00;99.90;;;;;;5004412;28;20044;-79
2023/05/18 01:11:00;;;;;;;14.52;10.30;;;2.00;99.90;;;;;;5005676;28;20104;-79
2023/05/18 01:13:37;;;;;;;10.10;4.05;;;2.00;99.90;;;;;;5004386;28;20050;-79
2023/05/18 01:16:09;;;;;;;7.65;4.05;;;2.00;99.90;;;;;;5004802;28;20045;-79
2023/05/18 01:19:01;;;;;;;10.53;4.27;;;1.90;99.90;;;;;;5004952;28;20045;-79
2023/05/18 01:21:56;;;;;;;13.57;10.52;;;2.00;99.90;;;;;;5018740;28;20814;-79
2023/05/18 01:24:47;;;;;;;17.67;12.60;;;2.00;99.90;;;;;;4969114;28;20038;-79
2023/05/18 01:27:16;;;;;;;16.30;12.32;;;1.90;99.90;;;;;;5004079;28;20065;-79
2023/05/18 01:29:44;;;;;;;18.58;11.30;;;1.90;99.90;;;;;;5004778;28;20034;-79
2023/05/18 01:32:19;;;;;;;8.98;4.25;;;1.90;99.90;;;;;;5003647;28;20492;-79
2023/05/18 01:34:46;;;;;;;8.90;4.13;;;1.80;99.90;;;;;;5001155;28;20042;-79
2023/05/18 01:37:12;;;;;;;15.02;12.73;;;1.80;99.90;;;;;;5004005;28;20429;-79
2023/05/18 01:39:38;;;;;;;15.63;13.43;;;1.80;99.90;;;;;;5004059;28;20057;-79
2023/05/18 01:42:11;;;;;;;7.55;4.15;;;1.80;99.90;;;;;;5020250;28;20052;-79
2023/05/18 01:45:00;;;;;;;16.65;14.10;;;1.80;99.90;;;;;;4998007;28;20034;-79
2023/05/18 01:47:29;;;;;;;11.30;4.40;;;1.80;99.90;;;;;;4996621;28;20100;-79
2023/05/18 01:50:07;;;;;;;16.77;13.48;;;1.70;99.90;;;;;;5020559;28;20038;-79
2023/05/18 01:52:42;;;;;;;14.15;11.95;;;1.70;99.90;;;;;;5005161;28;20049;-79
2023/05/18 01:55:10;;;;;;;18.50;15.90;;;1.70;99.90;;;;;;5005022;28;20069;-79
2023/05/18 01:57:38;;;;;;;10.18;4.35;;;1.70;99.90;;;;;;5019897;28;20030;-79
2023/05/18 02:00:09;;;;;;;19.15;13.98;;;1.70;99.90;;;;;;5004237;28;20046;-79
2023/05/18 02:02:34;;;;;;;19.58;13.77;;;1.70;99.90;;;;;;5002699;28;20443;-79
2023/05/18 02:05:01;;;;;;;22.83;15.93;;;1.70;99.90;;;;;;5002864;28;20038;-79
2023/05/18 02:07:26;;;;;;;18.65;13.90;;;1.70;99.90;;;;;;5004218;28;20402;-79
2023/05/18 02:09:52;;;;;;;16.25;4.97;;;1.70;99.90;;;;;;5004924;28;20046;-79
2023/05/18 02:12:18;;;;;;;19.67;14.80;;;1.70;99.90;;;;;;5005087;28;20037;-79
2023/05/18 02:14:44;;;;;;;7.45;3.83;;;1.60;99.90;;;;;;4996014;28;20066;-79
2023/05/18 02:17:10;;;;;;;14.00;12.60;;;1.60;99.90;;;;;;5004366;28;20042;-79
2023/05/18 02:19:38;;;;;;;10.43;4.47;;;1.60;99.90;;;;;;5005178;28;20040;-79
2023/05/18 02:22:05;;;;;;;13.32;4.60;;;1.60;99.90;;;;;;5005092;28;20066;-79
2023/05/18 02:24:32;;;;;;;16.58;13.27;;;1.50;99.90;;;;;;5013403;28;20037;-79
2023/05/18 02:26:58;;;;;;;16.52;14.15;;;1.50;99.90;;;;;;5006773;28;20037;-79
2023/05/18 02:29:24;;;;;;;20.00;15.70;;;1.50;99.90;;;;;;5009211;28;20040;-79
2023/05/18 02:31:50;;;;;;;7.47;3.97;;;1.50;99.90;;;;;;5017108;28;20042;-79
2023/05/18 02:34:16;;;;;;;9.02;4.80;;;1.50;99.90;;;;;;5024266;28;20045;-79
2023/05/18 02:36:44;;;;;;;6.80;3.78;;;1.50;99.90;;;;;;5000513;28;20113;-79
2023/05/18 02:39:11;;;;;;;15.07;12.30;;;1.50;99.90;;;;;;5008000;28;20049;-79
2023/05/18 02:41:37;;;;;;;19.10;14.82;;;1.40;99.90;;;;;;5020615;28;20034;-79
2023/05/18 02:44:03;;;;;;;16.42;14.05;;;1.40;99.90;;;;;;5011678;28;20523;-79
2023/05/18 02:46:30;;;;;;;21.48;15.43;;;1.50;99.90;;;;;;5007609;28;20502;-79
2023/05/18 02:48:55;;;;;;;15.68;12.32;;;1.40;99.90;;;;;;4998029;28;20230;-79
2023/05/18 02:51:22;;;;;;;8.55;4.50;;;1.40;99.90;;;;;;4997208;28;20500;-79
2023/05/18 02:53:48;;;;;;;15.32;13.73;;;1.40;99.90;;;;;;4997422;28;20711;-79
2023/05/18 02:56:14;;;;;;;9.20;4.03;;;1.40;99.90;;;;;;5004589;28;20034;-79
2023/05/18 02:58:42;;;;;;;18.33;15.50;;;1.40;99.90;;;;;;5013903;28;20034;-79
2023/05/18 03:01:08;;;;;;;9.82;4.70;;;1.30;99.90;;;;;;4978918;28;20129;-79
2023/05/18 03:03:34;;;;;;;12.80;4.35;;;1.40;99.90;;;;;;5004117;28;20117;-79
2023/05/18 03:06:03;;;;;;;20.10;14.70;;;1.40;99.90;;;;;;4988536;28;20465;-79
2023/05/18 03:08:30;;;;;;;10.32;4.53;;;1.40;99.90;;;;;;4991618;28;20243;-79
2023/05/18 03:10:56;;;;;;;18.65;15.35;;;1.40;99.90;;;;;;4994946;28;20125;-79
2023/05/18 03:13:22;;;;;;;19.02;14.73;;;1.40;99.90;;;;;;4991915;28;20088;-79
2023/05/18 03:15:49;;;;;;;17.42;14.95;;;1.50;99.90;;;;;;4992550;28;20052;-80
2023/05/18 03:18:16;;;;;;;18.23;13.80;;;1.50;99.90;;;;;;4995693;28;20431;-79
2023/05/18 03:20:43;;;;;;;20.27;17.10;;;1.60;99.90;;;;;;4998359;28;20096;-79
2023/05/18 03:23:08;;;;;;;20.33;15.68;;;1.60;99.90;;;;;;5003983;28;20083;-79
2023/05/18 03:25:36;;;;;;;19.60;15.63;;;1.70;99.90;;;;;;4997339;28;20428;-79
2023/05/18 03:28:05;;;;;;;20.08;16.10;;;1.70;99.90;;;;;;5012239;28;20037;-79
2023/05/18 03:30:33;;;;;;;13.02;5.45;;;1.70;99.90;;;;;;4997689;28;20038;-79
2023/05/18 03:33:00;;;;;;;19.30;15.52;;;1.70;99.90;;;;;;4997571;28;20531;-79
2023/05/18 03:35:26;;;;;;;20.98;18.15;;;1.70;99.90;;;;;;4997909;28;20530;-79
2023/05/18 03:37:52;;;;;;;21.23;14.48;;;1.80;99.90;;;;;;5010455;28;20129;-80
2023/05/18 03:40:19;;;;;;;19.33;16.92;;;1.80;99.90;;;;;;4997073;28;20033;-79
2023/05/18 03:42:44;;;;;;;11.27;5.10;;;1.90;99.90;;;;;;4995606;28;20030;-79
2023/05/18 03:45:11;;;;;;;17.63;13.77;;;1.90;99.90;;;;;;5013581;28;20042;-79
2023/05/18 03:47:37;;;;;;;16.90;14.57;;;1.90;99.90;;;;;;5009566;28;20052;-80
2023/05/18 03:50:04;;;;;;;12.85;4.68;;;2.00;99.90;;;;;;4993719;28;20390;-79
2023/05/18 03:52:33;;;;;;;9.65;4.22;;;2.00;99.90;;;;;;4996450;28;20492;-79
2023/05/18 03:55:00;;;;;;;17.98;15.45;;;2.00;99.90;;;;;;5010511;28;20042;-79
2023/05/18 03:57:27;;;;;;;19.63;16.75;;;2.10;99.90;;;;;;4998018;28;20042;-79
2023/05/18 03:59:53;;;;;;;18.02;16.13;;;2.10;99.90;;;;;;4998293;28;20052;-80
2023/05/18 04:02:19;;;;;;;16.80;15.02;;;2.20;99.90;;;;;;5000328;28;20057;-79
2023/05/18 04:04:46;;;;;;;7.43;4.60;;;2.30;99.90;;;;;;5000488;28;20489;-79
2023/05/18 04:07:15;;;;;;;8.60;5.32;;;2.20;99.90;;;;;;4999861;28;20044;-79
2023/05/18 04:09:41;;;;;;;16.85;13.15;;;2.20;99.90;;;;;;5000153;28;20029;-79
2023/05/18 04:12:07;;;;;;;16.15;13.80;;;2.30;99.90;;;;;;4999271;28;20052;-79
2023/05/18 04:14:33;;;;;;;15.32;13.70;;;2.30;99.90;;;;;;4998505;28;20455;-79
2023/05/18 04:17:05;;;;;;;15.57;13.80;;;2.40;99.90;;;;;;4998746;28;20122;-80
2023/05/18 04:19:32;;;;;;;15.60;14.00;;;2.40;99.90;;;;;;4999562;28;20045;-79
2023/05/18 04:21:58;;;;;;;15.23;13.43;;;2.50;99.90;;;;;;4999365;28;20092;-79
2023/05/18 04:24:25;;;;;;;12.70;11.23;;;2.50;99.90;;;;;;4997966;28;20101;-79
2023/05/18 04:26:52;;;;;;;16.98;12.95;;;2.60;99.90;;;;;;5013347;28;20041;-79
2023/05/18 04:29:18;;;;;;;14.35;12.48;;;2.70;99.90;;;;;;5014750;28;20037;-79
2023/05/18 04:31:46;;;;;;;17.95;16.08;;;2.70;99.90;;;;;;4998792;28;20381;-79
2023/05/18 04:34:12;;;;;;;13.68;12.27;;;2.80;99.90;;;;;;5014841;28;20396;-79
2023/05/18 04:36:41;;;;;;;15.90;13.32;;;2.80;99.90;;;;;;4999184;28;20046;-79
2023/05/18 04:39:08;;;;;;;14.60;13.15;;;2.90;99.90;;;;;;4997826;28;20070;-79
2023/05/18 04:41:34;;;;;;;15.65;12.93;;;3.00;99.90;;;;;;4989250;28;20048;-79
2023/05/18 04:44:03;;;;;;;15.65;13.48;;;3.20;99.90;;;;;;4993760;28;20125;-79
2023/05/18 04:46:29;;;;;;;15.30;11.00;;;3.60;99.90;;;;;;5015589;28;20408;-80
2023/05/18 04:48:56;;;;;;;13.65;10.90;;;4.00;99.90;;;;;;4996696;28;20057;-80
2023/05/18 04:51:23;;;;;;;12.25;11.02;;;4.30;99.90;;;;;;4997821;28;20128;-80
2023/05/18 04:53:54;;;;;;;12.75;9.30;;;4.60;99.90;;;;;;4997481;28;20567;-80
2023/05/18 04:56:21;;;;;;;12.45;10.35;;;4.90;99.90;;;;;;4989899;28;20079;-80
2023/05/18 04:58:47;;;;;;;13.43;8.48;;;5.00;99.90;;;;;;5013802;28;20046;-80
2023/05/18 05:01:14;;;;;;;15.95;8.65;;;5.30;99.90;;;;;;4978088;28;20061;-80
2023/05/18 05:03:43;;;;;;;10.20;7.40;;;5.60;99.90;;;;;;5005380;28;20041;-80
2023/05/18 05:06:10;;;;;;;11.60;7.88;;;5.80;99.90;;;;;;4996503;28;20221;-80
2023/05/18 05:08:36;;;;;;;11.23;7.80;;;5.90;99.90;;;;;;4997142;28;20041;-80
2023/05/18 05:11:02;;;;;;;10.57;7.22;;;6.10;99.90;;;;;;5013926;28;20120;-80
2023/05/18 05:13:28;;;;;;;11.45;7.20;;;6.30;99.90;;;;;;4995078;28;20044;-79
2023/05/18 05:15:54;;;;;;;8.38;6.68;;;6.40;99.90;;;;;;4996138;28;20042;-80
2023/05/18 05:18:20;;;;;;;9.57;6.30;;;6.40;99.90;;;;;;4984944;28;20049;-78
2023/05/18 05:20:49;;;;;;;7.60;6.80;;;6.50;99.90;;;;;;4979900;28;20043;-77
2023/05/18 05:23:14;;;;;;;12.18;6.40;;;6.60;99.90;;;;;;4992268;28;20488;-78
2023/05/18 05:25:40;;;;;;;11.77;5.90;;;7.10;99.90;;;;;;4990989;28;20030;-77
2023/05/18 05:28:05;;;;;;;8.57;4.78;;;7.60;99.90;;;;;;4995181;28;20172;-77
2023/05/18 05:30:31;;;;;;;10.38;5.22;;;8.00;99.90;;;;;;4990580;28;20046;-77
2023/05/18 05:32:57;;;;;;;10.82;4.85;;;8.50;99.90;;;;;;4997254;28;20037;-77
2023/05/18 05:35:23;;;;;;;11.18;4.68;;;9.10;99.90;;;;;;4991378;28;20038;-77
2023/05/18 05:37:48;;;;;;;9.05;3.83;;;9.70;99.90;;;;;;4991862;28;20112;-77
2023/05/18 05:40:14;;;;;;;8.38;4.20;;;10.10;99.90;;;;;;5011858;28;20060;-77
2023/05/18 05:42:40;;;;;;;11.65;4.18;;;10.20;99.90;;;;;;5012083;28;20042;-77
2023/05/18 05:45:07;;;;;;;9.50;3.78;;;10.30;99.90;;;;;;4994487;28;20045;-77
2023/05/18 05:47:33;;;;;;;8.82;4.10;;;10.10;99.90;;;;;;4995987;28;20077;-77
2023/05/18 05:49:58;;;;;;;8.20;4.05;;;9.70;99.90;;;;;;5014957;28;20153;-77
2023/05/18 05:52:27;;;;;;;9.55;4.28;;;9.40;99.90;;;;;;4995677;28;20421;-77
2023/05/18 05:54:53;;;;;;;9.45;4.40;;;8.90;99.90;;;;;;4998367;28;20042;-77
2023/05/18 05:57:19;;;;;;;8.45;4.00;;;8.60;99.90;;;;;;4998607;28;20049;-77
2023/05/18 05:59:45;;;;;;;15.75;5.28;;;8.40;99.90;;;;;;4999350;28;20175;-77
2023/05/18 06:02:11;;;;;;;9.07;4.30;;;8.30;99.90;;;;;;4994173;28;20088;-77
2023/05/18 06:04:37;;;;;;;8.05;4.68;;;8.20;99.90;;;;;;4995739;28;20074;-77
2023/05/18 06:07:03;;;;;;;11.15;4.47;;;8.20;99.90;;;;;;4998719;28;20038;-77
2023/05/18 06:09:28;;;;;;;8.68;4.07;;;8.30;99.90;;;;;;4999366;28;20029;-77
2023/05/18 06:11:54;;;;;;;9.18;3.95;;;8.40;99.90;;;;;;4997472;28;20057;-77
2023/05/18 06:14:20;;;;;;;9.18;4.35;;;8.40;99.90;;;;;;5013563;28;20069;-77
2023/05/18 06:16:48;;;;;;;11.63;4.40;;;8.40;99.90;;;;;;4997945;28;20042;-77
2023/05/18 06:19:14;;;;;;;10.55;4.30;;;8.50;99.90;;;;;;4999400;28;20129;-77
2023/05/18 06:21:40;;;;;;;11.07;4.05;;;8.50;99.90;;;;;;4998741;28;20120;-77
2023/05/18 06:24:06;;;;;;;9.75;4.45;;;8.50;99.90;;;;;;5014577;28;20034;-77
2023/05/18 06:26:31;;;;;;;9.52;4.15;;;8.60;99.90;;;;;;5014845;28;20092;-77
2023/05/18 06:28:57;;;;;;;7.63;4.10;;;8.70;99.90;;;;;;4991568;28;20513;-77
2023/05/18 06:31:23;;;;;;;8.55;3.72;;;8.80;99.90;;;;;;4995351;28;20034;-78
2023/05/18 06:33:52;;;;;;;9.98;4.13;;;8.90;99.90;;;;;;5012661;28;20129;-77
2023/05/18 06:36:21;;;;;;;9.68;3.47;;;9.00;99.90;;;;;;4996381;28;20081;-79
2023/05/18 06:38:47;;;;;;;8.93;3.47;;;9.10;99.90;;;;;;4979682;28;20042;-79
2023/05/18 06:41:13;;;;;;;10.55;4.45;;;9.20;99.90;;;;;;5004049;28;20076;-78
2023/05/18 06:43:39;;;;;;;9.27;3.78;;;9.40;99.90;;;;;;5012902;28;20030;-79
2023/05/18 06:46:07;;;;;;;9.85;4.00;;;9.60;99.90;;;;;;4994997;28;20397;-79
2023/05/18 06:48:36;;;;;;;10.65;3.20;;;9.90;99.90;;;;;;4978891;28;20040;-78
2023/05/18 06:51:04;;;;;;;8.25;3.17;;;10.00;99.90;;;;;;4996178;28;20048;-79
2023/05/18 06:53:33;;;;;;;9.75;3.60;;;10.10;99.90;;;;;;4997914;28;20108;-79
2023/05/18 06:55:59;;;;;;;8.00;2.65;;;10.30;99.90;;;;;;4996967;28;20033;-79
2023/05/18 06:58:25;;;;;;;7.13;2.75;;;10.40;99.90;;;;;;5003628;28;20528;-78
2023/05/18 07:00:56;;;;;;;8.88;2.97;;;10.50;99.90;;;;;;4993490;28;20042;-80
2023/05/18 07:03:28;;;;;;;7.47;2.92;;;10.50;99.90;;;;;;4995804;28;20038;-79
2023/05/18 07:06:00;;;;;;;7.45;3.40;;;10.50;99.90;;;;;;4995068;28;20030;-80
2023/05/18 07:08:30;;;;;;;8.30;2.75;;;10.60;99.90;;;;;;4992143;28;20100;-80
2023/05/18 07:10:57;;;;;;;9.20;2.90;;;10.60;97.90;;;;;;4965296;28;20416;-80
2023/05/18 07:13:31;;;;;;;7.38;2.67;;;10.60;97.30;;;;;;4989911;28;20026;-80
2023/05/18 07:16:01;;;;;;;6.93;2.65;;;10.60;99.90;;;;;;5012352;28;20063;-78
2023/05/18 07:18:33;;;;;;;8.02;2.97;;;10.60;95.10;;;;;;4988084;28;20061;-79
2023/05/18 07:21:11;;;;;;;8.13;2.80;;;10.60;92.90;;;;;;5011341;28;20038;-80
2023/05/18 07:23:39;;;;;;;7.80;2.70;;;10.60;98.50;;;;;;4990223;28;20038;-79
2023/05/18 07:26:08;;;;;;;8.05;2.53;;;10.70;92.60;;;;;;4993880;28;20068;-79
2023/05/18 07:28:34;;;;;;;8.32;2.30;;;10.80;86.90;;;;;;4994201;28;20030;-79
2023/05/18 07:31:00;;;;;;;9.15;3.10;;;10.90;88.70;;;;;;4992718;28;20463;-79
2023/05/18 07:33:29;;;;;;;7.05;2.47;;;10.90;92.50;;;;;;4990680;28;20061;-79
2023/05/18 07:35:55;;;;;;;7.35;2.70;;;11.10;92.80;;;;;;4996575;28;20042;-79
2023/05/18 07:38:36;;;;;;;8.13;2.63;;;11.20;85.80;;;;;;4993513;28;20042;-79
2023/05/18 07:41:04;;;;;;;11.38;2.88;;;11.30;86.60;;;;;;4992577;28;20042;-79
2023/05/18 07:43:41;;;;;;;9.70;3.03;;;11.50;85.30;;;;;;4990003;28;20100;-80
2023/05/18 07:46:38;;;;;;;8.50;3.00;;;11.70;82.50;;;;;;4997216;28;20034;-80
2023/05/18 07:49:07;;;;;;;8.45;2.45;;;11.90;82.40;;;;;;4987899;28;20117;-79
2023/05/18 07:51:47;;;;;;;7.50;2.65;;;12.20;77.10;;;;;;4999009;28;20049;-80
2023/05/18 07:54:28;;;;;;;8.05;2.92;;;12.10;78.00;;;;;;4979115;28;20042;-78
2023/05/18 07:56:57;;;;;;;7.85;2.60;;;12.10;76.10;;;;;;4993656;28;20393;-79
2023/05/18 07:59:43;;;;;;;6.97;2.45;;;12.20;75.50;;;;;;4995998;28;20040;-79
2023/05/18 08:02:23;;;;;;;7.70;2.78;;;12.10;74.10;;;;;;5009403;28;20049;-79
2023/05/18 08:04:57;;;;;;;6.82;2.60;;;12.00;77.30;;;;;;4997789;28;20129;-79
2023/05/18 08:07:52;;;;;;;7.93;2.40;;;12.30;79.90;;;;;;4997280;28;20048;-79
2023/05/18 08:10:29;;;;;;;9.10;2.63;;;12.50;76.20;;;;;;4997049;28;20037;-78
2023/05/18 08:13:37;;;;;;;7.63;2.65;;;12.60;73.70;;;;;;4993880;28;20038;-78
2023/05/18 08:16:17;;;;;;;7.22;2.75;;;12.50;73.40;;;;;;4994502;28;20374;-79
2023/05/18 08:19:03;;;;;;;8.68;2.78;;;12.60;74.20;;;;;;4996150;28;20412;-78
2023/05/18 08:21:55;;;;;;;10.18;3.20;;;12.60;71.30;;;;;;4995102;28;20049;-79
2023/05/18 08:29:10;;;;;;;7.43;2.55;;;13.10;72.90;;;;;;5003728;28;20451;-80
2023/05/18 08:32:05;;;;;;;8.57;2.70;;;13.50;70.40;;;;;;4949181;29;20433;-81
2023/05/18 08:34:40;;;;;;;8.23;2.78;;;13.60;70.20;;;;;;4996551;28;20046;-80
2023/05/18 08:37:06;;;;;;;8.90;2.97;;;13.60;70.00;;;;;;4995573;28;20053;-80
2023/05/18 08:40:11;;;;;;;7.53;2.58;;;13.50;70.70;;;;;;5004749;28;20425;-81
2023/05/18 08:43:32;;;;;;;9.02;3.00;;;13.50;70.50;;;;;;4985784;28;20128;-82
2023/05/18 08:46:48;;;;;;;;;;;;;;;;;;;;;
2023/05/18 08:49:19;;;;;;;7.63;2.90;;;13.70;74.90;;;;;;5012296;28;20048;-81
2023/05/18 08:55:35;;;;;;;;;;;;;;;;;;;;;
2023/05/18 08:58:03;;;;;;;9.88;3.00;;;14.50;65.50;;;;;;5011895;28;20053;-81
2023/05/18 09:00:53;;;;;;;10.75;3.30;;;14.20;68.50;;;;;;4991635;28;20437;-81
2023/05/18 09:03:49;;;;;;;9.75;3.13;;;14.10;65.30;;;;;;4997827;28;20045;-80
2023/05/18 09:06:25;;;;;;;8.43;3.00;;;13.90;66.80;;;;;;4998937;28;20124;-81
2023/05/18 09:09:06;;;;;;;8.50;3.20;;;14.00;66.70;;;;;;5014153;28;20042;-82
2023/05/18 09:11:59;;;;;;;7.03;2.90;;;14.10;68.40;;;;;;5014058;28;20046;-81
2023/05/18 09:14:47;;;;;;;8.23;3.10;;;14.70;64.30;;;;;;4993721;28;20097;-81
2023/05/18 09:17:30;;;;;;;8.65;3.00;;;14.70;63.50;;;;;;5015302;28;20133;-78
2023/05/18 09:19:57;;;;;;;8.93;2.83;;;14.90;65.50;;;;;;4999865;28;20473;-80
2023/05/18 09:22:39;;;;;;;8.60;2.78;;;15.20;62.80;;;;;;4998335;28;20500;-79
2023/05/18 09:25:30;;;;;;;7.00;2.47;;;14.80;62.00;;;;;;5000230;28;20044;-81
2023/05/18 09:28:06;;;;;;;7.40;2.95;;;14.80;63.60;;;;;;4996712;28;20055;-82
2023/05/18 09:30:40;;;;;;;8.73;2.80;;;14.90;63.00;;;;;;4971318;28;20042;-79
2023/05/18 09:33:22;;;;;;;6.75;2.80;;;14.90;63.10;;;;;;4996292;28;20049;-79
2023/05/18 09:36:13;;;;;;;6.55;2.90;;;15.00;62.00;;;;;;5006255;28;20069;-79
2023/05/18 09:38:54;;;;;;;8.23;2.80;;;15.20;62.10;;;;;;5002440;28;20057;-79
2023/05/18 09:41:31;;;;;;;7.90;2.78;;;15.50;65.60;;;;;;5000486;28;20042;-79
2023/05/18 09:44:11;;;;;;;8.05;2.55;;;16.20;59.80;;;;;;5013261;28;20058;-78
2023/05/18 09:46:46;;;;;;;8.50;2.80;;;16.50;58.60;;;;;;5015100;28;20504;-78
2023/05/18 09:49:23;;;;;;;6.43;2.58;;;16.60;57.80;;;;;;4998685;28;20041;-79
2023/05/18 09:52:01;;;;;;;8.77;2.60;;;16.60;58.60;;;;;;4994029;28;20120;-78
2023/05/18 09:54:29;;;;;;;7.55;2.47;;;16.70;58.00;;;;;;4989317;28;20042;-78
2023/05/18 09:56:58;;;;;;;7.50;2.65;;;16.50;60.60;;;;;;5014452;28;20042;-79
2023/05/18 09:59:30;;;;;;;6.32;2.58;;;16.80;62.20;;;;;;4998599;28;20046;-79
2023/05/18 10:02:01;;;;;;;7.97;2.75;;;17.40;56.60;;;;;;4985092;28;20082;-79
2023/05/18 10:04:46;;;;;;;7.25;2.63;;;17.20;55.60;;;;;;4999429;28;20061;-79
2023/05/18 10:07:21;;;;;;;6.03;2.70;;;16.80;55.50;;;;;;5014998;28;20555;-79
2023/05/18 10:10:02;;;;;;;6.10;2.25;;;16.40;58.70;;;;;;4999142;28;20072;-79
2023/05/18 10:12:39;;;;;;;8.15;2.83;;;16.40;57.70;;;;;;4998692;28;20440;-79
2023/05/18 10:15:16;;;;;;;6.68;2.85;;;16.50;58.70;;;;;;5012820;28;20108;-79
2023/05/18 10:17:43;;;;;;;7.35;2.85;;;16.50;56.20;;;;;;5018323;28;20073;-79
2023/05/18 10:20:12;;;;;;;9.38;2.97;;;16.20;57.40;;;;;;5004082;28;20088;-79
2023/05/18 10:22:42;;;;;;;8.32;3.05;;;16.10;58.70;;;;;;4999344;28;20073;-79
2023/05/18 10:25:11;;;;;;;6.63;2.72;;;16.40;62.20;;;;;;4999873;28;20124;-79
2023/05/18 10:27:42;;;;;;;7.60;2.70;;;17.10;59.10;;;;;;4999789;28;20038;-79
2023/05/18 10:30:08;;;;;;;6.00;2.63;;;17.60;56.40;;;;;;4998935;28;20045;-79
2023/05/18 10:32:35;;;;;;;8.25;2.70;;;17.70;56.50;;;;;;4998224;28;20041;-79
2023/05/18 10:35:06;;;;;;;8.27;3.00;;;17.60;54.70;;;;;;4999195;28;20100;-79
2023/05/18 10:37:40;;;;;;;6.70;2.60;;;17.30;55.50;;;;;;4998523;28;20045;-79
2023/05/18 10:40:11;;;;;;;8.60;2.63;;;17.40;56.50;;;;;;4998320;28;20459;-79
2023/05/18 10:42:39;;;;;;;7.15;2.50;;;17.40;56.30;;;;;;5014615;28;20073;-80
2023/05/18 10:45:06;;;;;;;6.72;3.17;;;17.20;55.60;;;;;;4998135;28;20045;-80
2023/05/18 10:47:34;;;;;;;5.88;2.55;;;17.00;58.00;;;;;;4998372;28;20479;-79
2023/05/18 10:50:03;;;;;;;7.55;2.60;;;17.40;56.80;;;;;;4988086;28;20070;-80
2023/05/18 10:52:30;;;;;;;8.68;3.28;;;17.50;56.60;;;;;;4979848;28;20409;-79
2023/05/18 10:55:05;;;;;;;8.38;2.70;;;17.70;54.50;;;;;;4979696;28;20046;-79
2023/05/18 10:57:39;;;;;;;6.50;2.50;;;17.60;54.20;;;;;;4980815;28;20054;-80
2023/05/18 11:00:13;;;;;;;6.53;2.70;;;17.30;55.60;;;;;;4993265;28;20044;-79
2023/05/18 11:02:43;;;;;;;7.45;2.85;;;17.60;55.40;;;;;;4981821;28;20062;-79
2023/05/18 11:05:12;;;;;;;8.50;2.60;;;17.70;54.90;;;;;;4998898;28;20042;-80
2023/05/18 11:07:38;;;;;;;6.18;2.65;;;17.60;56.30;;;;;;4998547;28;20097;-79
2023/05/18 11:10:09;;;;;;;9.13;2.70;;;17.70;56.80;;;;;;5000730;28;20030;-79
2023/05/18 11:12:39;;;;;;;7.68;2.55;;;17.90;53.80;;;;;;4995223;28;20034;-80
2023/05/18 11:15:05;;;;;;;6.38;2.72;;;17.70;55.00;;;;;;4981539;28;20077;-79
2023/05/18 11:17:31;;;;;;;4.43;2.67;;;18.00;53.70;;;;;;4996225;28;20038;-79
2023/05/18 11:20:05;;;;;;;8.38;2.90;;;18.10;53.40;;;;;;4991174;28;20042;-80
2023/05/18 11:22:55;;;;;;;6.53;2.72;;;17.70;53.80;;;;;;5000172;28;20050;-80
2023/05/18 11:25:24;;;;;;;8.25;3.10;;;17.30;58.20;;;;;;4999865;28;20053;-79
2023/05/18 11:28:02;;;;;;;7.63;3.00;;;17.40;55.60;;;;;;5015708;28;20045;-80
2023/05/18 11:30:43;;;;;;;4.38;2.45;;;17.50;58.00;;;;;;5000119;28;20053;-80
2023/05/18 11:33:21;;;;;;;6.05;2.55;;;18.00;58.50;;;;;;5000330;28;20050;-80
2023/05/18 11:35:53;;;;;;;8.00;2.95;;;18.60;56.70;;;;;;4999398;28;20081;-80
2023/05/18 11:38:19;;;;;;;6.32;2.90;;;19.00;55.60;;;;;;4999957;28;20045;-80
2023/05/18 11:40:50;;;;;;;5.78;2.60;;;19.10;54.10;;;;;;4998353;28;20038;-79
2023/05/18 11:43:23;;;;;;;7.28;2.80;;;19.50;52.50;;;;;;4998173;28;20042;-79
2023/05/18 11:45:57;;;;;;;7.15;2.67;;;19.40;51.50;;;;;;4997902;28;20129;-80
2023/05/18 11:48:28;;;;;;;7.18;2.90;;;19.00;51.70;;;;;;4997591;28;20409;-80
2023/05/18 11:50:57;;;;;;;7.35;2.90;;;18.80;52.80;;;;;;4998303;28;20053;-79
2023/05/18 11:53:25;;;;;;;6.65;2.83;;;18.70;52.30;;;;;;4997524;28;20049;-79
2023/05/18 11:55:58;;;;;;;6.15;2.83;;;18.30;53.50;;;;;;4997142;28;20500;-79
2023/05/18 11:58:24;;;;;;;6.03;3.00;;;18.20;54.00;;;;;;4996499;28;20041;-79
2023/05/18 12:00:51;;;;;;;7.47;3.00;;;18.30;53.20;;;;;;4997232;28;20049;-79
2023/05/18 12:03:22;;;;;;;7.75;2.90;;;18.20;53.50;;;;;;4997261;28;20045;-79
2023/05/18 12:05:48;;;;;;;8.70;2.90;;;18.20;54.80;;;;;;4997028;28;20046;-80
2023/05/18 12:08:18;;;;;;;6.00;2.95;;;18.40;54.60;;;;;;4996968;28;20452;-79
2023/05/18 12:10:48;;;;;;;6.47;3.10;;;18.70;53.80;;;;;;4996598;28;20042;-79
2023/05/18 12:13:16;;;;;;;18.92;3.42;;;19.00;53.10;;;;;;4996883;28;20057;-80
2023/05/18 12:15:43;;;;;;;7.22;3.00;;;19.20;54.30;;;;;;4996524;28;20038;-79
2023/05/18 12:18:10;;;;;;;5.35;2.85;;;19.60;53.50;;;;;;4994086;28;20034;-79
2023/05/18 12:20:39;;;;;;;7.88;2.85;;;19.90;52.20;;;;;;5000054;28;20485;-78
2023/05/18 12:23:05;;;;;;;13.68;3.05;;;19.80;49.20;;;;;;4996249;28;20042;-79
2023/05/18 12:25:35;;;;;;;6.13;2.90;;;19.50;52.40;;;;;;4998933;28;20038;-79
2023/05/18 12:28:03;;;;;;;9.77;3.15;;;19.50;52.10;;;;;;4997725;28;20041;-79
2023/05/18 12:30:33;;;;;;;8.40;2.90;;;19.70;52.80;;;;;;5013762;28;20042;-79
2023/05/18 12:33:03;;;;;;;7.18;2.67;;;19.70;51.70;;;;;;5014524;28;20045;-79
2023/05/18 12:35:30;;;;;;;6.07;2.90;;;19.60;51.00;;;;;;4999371;28;20038;-79
2023/05/18 12:37:59;;;;;;;5.85;2.97;;;19.50;51.10;;;;;;4997787;28;20033;-82
2023/05/18 12:40:25;;;;;;;6.28;2.85;;;19.50;50.80;;;;;;5013775;28;20096;-81
2023/05/18 12:43:06;;;;;;;7.15;2.90;;;19.40;51.10;;;;;;4988887;28;20455;-80
2023/05/18 12:45:33;;;;;;;7.63;3.03;;;19.50;52.40;;;;;;4990200;28;20527;-80
2023/05/18 12:48:10;;;;;;;5.72;2.83;;;19.60;52.10;;;;;;4988555;28;20510;-80
2023/05/18 12:50:44;;;;;;;9.95;3.45;;;19.80;50.90;;;;;;5009910;28;20477;-80
2023/05/18 12:53:10;;;;;;;7.10;3.03;;;19.90;50.20;;;;;;4995847;28;20363;-80
2023/05/18 12:55:38;;;;;;;9.02;3.50;;;19.90;51.50;;;;;;5010304;28;20116;-81
2023/05/18 12:58:17;;;;;;;7.05;3.10;;;19.70;51.80;;;;;;4995589;28;20030;-82
2023/05/18 13:00:45;;;;;;;5.15;2.70;;;19.60;49.60;;;;;;4991141;28;20427;-80
2023/05/18 13:03:15;;;;;;;5.93;3.17;;;19.40;52.30;;;;;;5019050;28;20120;-80
2023/05/18 13:05:44;;;;;;;7.68;3.20;;;19.20;51.60;;;;;;5002999;28;20095;-81
2023/05/18 13:08:20;;;;;;;5.38;2.85;;;19.10;50.60;;;;;;5015560;28;20401;-80
2023/05/18 13:10:46;;;;;;;5.68;2.65;;;19.30;48.60;;;;;;4993106;28;20071;-80
2023/05/18 13:13:15;;;;;;;5.90;2.72;;;19.10;50.20;;;;;;5000017;28;20050;-80
2023/05/18 13:15:42;;;;;;;8.93;3.38;;;18.90;50.90;;;;;;4983875;28;20440;-81